sensor_id;sensor_type;location;lat;lon;timestamp;pressure;altitude;pressure_sealevel;temperature;humidity
71107;BME280;58763;47.982;11.516;2024-02-21T00:02:11;95125.56;;;1.86;91.35
71107;BME280;58763;47.982;11.516;2024-02-21T00:04:37;95125.72;;;1.91;90.98
71107;BME280;58763;47.982;11.516;2024-02-21T00:07:04;95123.91;;;1.85;90.96
71107;BME280;58763;47.982;11.516;2024-02-21T00:09:30;95122.28;;;1.84;91.30
71107;BME280;58763;47.982;11.516;2024-02-21T00:11:56;95126.19;;;1.82;91.29
71107;BME280;58763;47.982;11.516;2024-02-21T00:14:21;95121.66;;;1.82;91.67
71107;BME280;58763;47.982;11.516;2024-02-21T00:16:47;95124.31;;;1.82;91.70
71107;BME280;58763;47.982;11.516;2024-02-21T00:19:13;95120.84;;;1.75;92.52
71107;BME280;58763;47.982;11.516;2024-02-21T00:21:40;95121.03;;;1.80;92.68
71107;BME280;58763;47.982;11.516;2024-02-21T00:24:06;95115.13;;;1.65;93.79
71107;BME280;58763;47.982;11.516;2024-02-21T00:26:31;95111.41;;;1.73;94.05
71107;BME280;58763;47.982;11.516;2024-02-21T00:28:57;95108.34;;;1.76;93.47
71107;BME280;58763;47.982;11.516;2024-02-21T00:31:23;95110.56;;;1.85;93.30
71107;BME280;58763;47.982;11.516;2024-02-21T00:33:48;95102.34;;;1.93;92.81
71107;BME280;58763;47.982;11.516;2024-02-21T00:36:14;95109.69;;;2.04;92.17
71107;BME280;58763;47.982;11.516;2024-02-21T00:38:41;95108.66;;;2.05;92.03
71107;BME280;58763;47.982;11.516;2024-02-21T00:41:07;95101.25;;;2.14;91.52
71107;BME280;58763;47.982;11.516;2024-02-21T00:43:32;95097.16;;;2.12;91.27
71107;BME280;58763;47.982;11.516;2024-02-21T00:45:58;95091.81;;;2.12;91.20
71107;BME280;58763;47.982;11.516;2024-02-21T00:48:23;95089.63;;;1.95;91.95
71107;BME280;58763;47.982;11.516;2024-02-21T00:50:49;95082.19;;;2.04;91.59
71107;BME280;58763;47.982;11.516;2024-02-21T00:53:15;95083.06;;;1.98;91.74
71107;BME280;58763;47.982;11.516;2024-02-21T00:55:40;95090.69;;;1.81;92.01
71107;BME280;58763;47.982;11.516;2024-02-21T00:58:06;95085.13;;;1.83;92.26
71107;BME280;58763;47.982;11.516;2024-02-21T01:00:31;95085.72;;;1.98;91.86
71107;BME280;58763;47.982;11.516;2024-02-21T01:02:57;95084.69;;;1.92;92.56
71107;BME280;58763;47.982;11.516;2024-02-21T01:05:22;95085.09;;;2.02;91.95
71107;BME280;58763;47.982;11.516;2024-02-21T01:07:48;95082.56;;;2.14;91.69
71107;BME280;58763;47.982;11.516;2024-02-21T01:10:14;95080.47;;;2.23;91.23
71107;BME280;58763;47.982;11.516;2024-02-21T01:12:39;95071.88;;;2.21;91.13
71107;BME280;58763;47.982;11.516;2024-02-21T01:15:05;95071.44;;;2.24;89.94
71107;BME280;58763;47.982;11.516;2024-02-21T01:17:31;95070.66;;;2.17;89.87
71107;BME280;58763;47.982;11.516;2024-02-21T01:19:57;95073.53;;;2.22;89.70
71107;BME280;58763;47.982;11.516;2024-02-21T01:22:22;95064.47;;;2.23;90.13
71107;BME280;58763;47.982;11.516;2024-02-21T01:24:48;95065.28;;;2.23;89.69
71107;BME280;58763;47.982;11.516;2024-02-21T01:27:13;95060.75;;;2.30;89.42
71107;BME280;58763;47.982;11.516;2024-02-21T01:29:39;95053.97;;;2.28;89.52
71107;BME280;58763;47.982;11.516;2024-02-21T01:32:05;95055.41;;;2.30;89.30
71107;BME280;58763;47.982;11.516;2024-02-21T01:34:30;95054.41;;;2.25;90.20
71107;BME280;58763;47.982;11.516;2024-02-21T01:36:56;95050.06;;;2.30;90.22
71107;BME280;58763;47.982;11.516;2024-02-21T01:39:21;95052.50;;;2.32;89.64
71107;BME280;58763;47.982;11.516;2024-02-21T01:41:47;95051.28;;;2.34;89.42
71107;BME280;58763;47.982;11.516;2024-02-21T01:44:13;95043.03;;;2.42;89.57
71107;BME280;58763;47.982;11.516;2024-02-21T01:46:39;95053.66;;;2.49;89.37
71107;BME280;58763;47.982;11.516;2024-02-21T01:49:05;95047.03;;;2.58;88.96
71107;BME280;58763;47.982;11.516;2024-02-21T01:51:31;95044.78;;;2.55;88.60
71107;BME280;58763;47.982;11.516;2024-02-21T01:53:58;95038.38;;;2.62;88.14
71107;BME280;58763;47.982;11.516;2024-02-21T01:56:23;95041.63;;;2.64;88.27
71107;BME280;58763;47.982;11.516;2024-02-21T01:58:51;95039.19;;;2.63;88.13
71107;BME280;58763;47.982;11.516;2024-02-21T02:01:17;95036.34;;;2.58;88.28
71107;BME280;58763;47.982;11.516;2024-02-21T02:03:45;95029.53;;;2.62;88.19
71107;BME280;58763;47.982;11.516;2024-02-21T02:06:11;95027.91;;;2.61;87.96
71107;BME280;58763;47.982;11.516;2024-02-21T02:08:37;95029.03;;;2.47;88.64
71107;BME280;58763;47.982;11.516;2024-02-21T02:11:03;95020.38;;;2.51;88.63
71107;BME280;58763;47.982;11.516;2024-02-21T02:13:29;95016.22;;;2.55;89.00
71107;BME280;58763;47.982;11.516;2024-02-21T02:15:55;95009.91;;;2.50;89.31
71107;BME280;58763;47.982;11.516;2024-02-21T02:18:20;95002.34;;;2.47;89.50
71107;BME280;58763;47.982;11.516;2024-02-21T02:20:47;94999.22;;;2.50;89.04
71107;BME280;58763;47.982;11.516;2024-02-21T02:23:29;95000.34;;;2.36;89.69
71107;BME280;58763;47.982;11.516;2024-02-21T02:25:55;94998.31;;;2.38;90.10
71107;BME280;58763;47.982;11.516;2024-02-21T02:28:22;94999.19;;;2.25;90.55
71107;BME280;58763;47.982;11.516;2024-02-21T02:30:48;94993.19;;;2.30;90.15
71107;BME280;58763;47.982;11.516;2024-02-21T02:33:13;94988.88;;;2.35;90.03
71107;BME280;58763;47.982;11.516;2024-02-21T02:35:39;94984.72;;;2.39;89.53
71107;BME280;58763;47.982;11.516;2024-02-21T02:38:05;94995.50;;;2.26;90.15
71107;BME280;58763;47.982;11.516;2024-02-21T02:40:33;94984.81;;;2.26;90.13
71107;BME280;58763;47.982;11.516;2024-02-21T02:42:59;94979.63;;;2.31;89.74
71107;BME280;58763;47.982;11.516;2024-02-21T02:45:25;94983.72;;;2.34;89.39
71107;BME280;58763;47.982;11.516;2024-02-21T02:47:55;94978.84;;;2.31;89.60
71107;BME280;58763;47.982;11.516;2024-02-21T02:50:26;94973.88;;;2.34;89.84
71107;BME280;58763;47.982;11.516;2024-02-21T02:52:52;94963.63;;;2.31;89.63
71107;BME280;58763;47.982;11.516;2024-02-21T02:55:18;94960.16;;;2.31;90.15
71107;BME280;58763;47.982;11.516;2024-02-21T02:57:44;94948.50;;;2.25;90.30
71107;BME280;58763;47.982;11.516;2024-02-21T03:00:10;94950.00;;;2.15;90.01
71107;BME280;58763;47.982;11.516;2024-02-21T03:02:39;94954.06;;;2.24;89.89
71107;BME280;58763;47.982;11.516;2024-02-21T03:05:12;94955.28;;;2.21;89.99
71107;BME280;58763;47.982;11.516;2024-02-21T03:07:39;94955.50;;;2.20;89.81
71107;BME280;58763;47.982;11.516;2024-02-21T03:10:04;94941.72;;;2.23;89.88
71107;BME280;58763;47.982;11.516;2024-02-21T03:12:40;94946.69;;;2.19;90.10
71107;BME280;58763;47.982;11.516;2024-02-21T03:15:07;94940.91;;;2.22;90.23
71107;BME280;58763;47.982;11.516;2024-02-21T03:17:33;94942.78;;;2.22;89.95
71107;BME280;58763;47.982;11.516;2024-02-21T03:20:03;94938.06;;;2.17;89.78
71107;BME280;58763;47.982;11.516;2024-02-21T03:22:35;94940.47;;;2.25;89.78
71107;BME280;58763;47.982;11.516;2024-02-21T03:25:00;94943.75;;;2.27;89.61
71107;BME280;58763;47.982;11.516;2024-02-21T03:27:26;94955.47;;;2.26;89.64
71107;BME280;58763;47.982;11.516;2024-02-21T03:29:52;94951.09;;;2.32;89.73
71107;BME280;58763;47.982;11.516;2024-02-21T03:32:18;94950.09;;;2.33;89.69
71107;BME280;58763;47.982;11.516;2024-02-21T03:34:44;94945.56;;;2.33;89.55
71107;BME280;58763;47.982;11.516;2024-02-21T03:37:10;94947.78;;;2.36;89.61
71107;BME280;58763;47.982;11.516;2024-02-21T03:39:35;94952.66;;;2.46;88.86
71107;BME280;58763;47.982;11.516;2024-02-21T03:42:02;94940.94;;;2.47;89.31
71107;BME280;58763;47.982;11.516;2024-02-21T03:44:31;94933.25;;;2.57;88.95
71107;BME280;58763;47.982;11.516;2024-02-21T03:46:57;94939.81;;;2.61;88.14
71107;BME280;58763;47.982;11.516;2024-02-21T03:49:22;94931.56;;;2.62;88.11
71107;BME280;58763;47.982;11.516;2024-02-21T03:51:48;94943.06;;;2.63;87.12
71107;BME280;58763;47.982;11.516;2024-02-21T03:54:13;94933.66;;;2.60;86.08
71107;BME280;58763;47.982;11.516;2024-02-21T03:56:39;94935.88;;;2.63;86.09
71107;BME280;58763;47.982;11.516;2024-02-21T03:59:06;94932.94;;;2.47;85.99
71107;BME280;58763;47.982;11.516;2024-02-21T04:01:34;94933.09;;;2.52;86.20
71107;BME280;58763;47.982;11.516;2024-02-21T04:04:00;94933.09;;;2.52;86.38
71107;BME280;58763;47.982;11.516;2024-02-21T04:06:25;94937.78;;;2.56;86.38
71107;BME280;58763;47.982;11.516;2024-02-21T04:08:51;94934.66;;;2.59;86.57
71107;BME280;58763;47.982;11.516;2024-02-21T04:11:17;94932.75;;;2.66;86.50
71107;BME280;58763;47.982;11.516;2024-02-21T04:13:44;94943.16;;;2.50;86.61
71107;BME280;58763;47.982;11.516;2024-02-21T04:16:10;94926.22;;;2.62;86.97
71107;BME280;58763;47.982;11.516;2024-02-21T04:18:36;94926.38;;;2.43;87.98
71107;BME280;58763;47.982;11.516;2024-02-21T04:21:02;94920.28;;;2.36;88.29
71107;BME280;58763;47.982;11.516;2024-02-21T04:23:27;94923.81;;;2.30;87.87
71107;BME280;58763;47.982;11.516;2024-02-21T04:25:53;94913.03;;;2.18;88.32
71107;BME280;58763;47.982;11.516;2024-02-21T04:28:18;94915.88;;;2.23;88.67
71107;BME280;58763;47.982;11.516;2024-02-21T04:30:44;94906.03;;;2.17;88.53
71107;BME280;58763;47.982;11.516;2024-02-21T04:33:09;94901.94;;;2.21;87.94
71107;BME280;58763;47.982;11.516;2024-02-21T04:35:38;94907.63;;;2.25;87.22
71107;BME280;58763;47.982;11.516;2024-02-21T04:38:04;94909.34;;;2.19;87.15
71107;BME280;58763;47.982;11.516;2024-02-21T04:40:30;94906.03;;;2.24;87.22
71107;BME280;58763;47.982;11.516;2024-02-21T04:42:57;94901.88;;;2.28;86.36
71107;BME280;58763;47.982;11.516;2024-02-21T04:45:22;94899.63;;;2.25;86.39
71107;BME280;58763;47.982;11.516;2024-02-21T04:47:48;94895.06;;;2.32;86.20
71107;BME280;58763;47.982;11.516;2024-02-21T04:50:14;94890.03;;;2.17;86.89
71107;BME280;58763;47.982;11.516;2024-02-21T04:52:39;94887.53;;;2.29;86.60
71107;BME280;58763;47.982;11.516;2024-02-21T04:55:05;94883.38;;;2.33;85.83
71107;BME280;58763;47.982;11.516;2024-02-21T04:57:31;94881.78;;;2.25;85.93
71107;BME280;58763;47.982;11.516;2024-02-21T04:59:57;94882.03;;;2.17;85.87
71107;BME280;58763;47.982;11.516;2024-02-21T05:02:23;94877.59;;;2.11;86.12
71107;BME280;58763;47.982;11.516;2024-02-21T05:04:50;94867.19;;;2.03;86.09
71107;BME280;58763;47.982;11.516;2024-02-21T05:07:16;94857.38;;;1.97;86.50
71107;BME280;58763;47.982;11.516;2024-02-21T05:09:42;94869.28;;;1.94;86.44
71107;BME280;58763;47.982;11.516;2024-02-21T05:12:08;94864.00;;;1.88;87.43
71107;BME280;58763;47.982;11.516;2024-02-21T05:14:34;94861.88;;;1.96;87.52
71107;BME280;58763;47.982;11.516;2024-02-21T05:17:00;94854.22;;;2.06;87.15
71107;BME280;58763;47.982;11.516;2024-02-21T05:19:25;94846.66;;;2.03;87.18
71107;BME280;58763;47.982;11.516;2024-02-21T05:21:51;94851.25;;;1.90;87.94
71107;BME280;58763;47.982;11.516;2024-02-21T05:24:17;94851.31;;;1.83;88.20
71107;BME280;58763;47.982;11.516;2024-02-21T05:26:42;94842.91;;;1.80;88.68
71107;BME280;58763;47.982;11.516;2024-02-21T05:29:08;94841.06;;;1.80;88.73
71107;BME280;58763;47.982;11.516;2024-02-21T05:34:21;94834.13;;;1.79;88.98
71107;BME280;58763;47.982;11.516;2024-02-21T05:36:47;94837.59;;;1.80;88.82
71107;BME280;58763;47.982;11.516;2024-02-21T05:39:15;94825.53;;;1.77;88.30
71107;BME280;58763;47.982;11.516;2024-02-21T05:41:44;94831.28;;;1.74;88.33
71107;BME280;58763;47.982;11.516;2024-02-21T05:44:11;94821.44;;;1.75;88.18
71107;BME280;58763;47.982;11.516;2024-02-21T05:46:36;94825.19;;;1.67;88.10
71107;BME280;58763;47.982;11.516;2024-02-21T05:49:02;94821.47;;;1.68;88.41
71107;BME280;58763;47.982;11.516;2024-02-21T05:51:27;94805.22;;;1.76;87.50
71107;BME280;58763;47.982;11.516;2024-02-21T05:53:53;94808.31;;;1.73;87.39
71107;BME280;58763;47.982;11.516;2024-02-21T05:56:19;94793.72;;;1.76;87.33
71107;BME280;58763;47.982;11.516;2024-02-21T05:58:44;94796.41;;;1.76;87.31
71107;BME280;58763;47.982;11.516;2024-02-21T06:01:10;94791.28;;;1.74;87.68
71107;BME280;58763;47.982;11.516;2024-02-21T06:03:36;94788.28;;;1.64;87.73
71107;BME280;58763;47.982;11.516;2024-02-21T06:06:02;94776.16;;;1.68;87.32
71107;BME280;58763;47.982;11.516;2024-02-21T06:08:28;94773.06;;;1.71;86.83
71107;BME280;58763;47.982;11.516;2024-02-21T06:10:53;94774.59;;;1.54;87.00
71107;BME280;58763;47.982;11.516;2024-02-21T06:13:23;94765.81;;;1.54;87.41
71107;BME280;58763;47.982;11.516;2024-02-21T06:15:50;94772.41;;;1.51;87.57
71107;BME280;58763;47.982;11.516;2024-02-21T06:18:17;94776.00;;;1.63;86.47
71107;BME280;58763;47.982;11.516;2024-02-21T06:20:43;94779.03;;;1.67;86.62
71107;BME280;58763;47.982;11.516;2024-02-21T06:23:09;94773.34;;;1.63;86.57
71107;BME280;58763;47.982;11.516;2024-02-21T06:25:35;94776.44;;;1.60;87.39
71107;BME280;58763;47.982;11.516;2024-02-21T06:28:00;94765.72;;;1.67;87.20
71107;BME280;58763;47.982;11.516;2024-02-21T06:30:26;94772.72;;;1.61;87.06
71107;BME280;58763;47.982;11.516;2024-02-21T06:32:52;94757.94;;;1.65;87.42
71107;BME280;58763;47.982;11.516;2024-02-21T06:35:19;94769.78;;;1.69;87.53
71107;BME280;58763;47.982;11.516;2024-02-21T06:37:44;94770.16;;;1.73;87.70
71107;BME280;58763;47.982;11.516;2024-02-21T06:40:16;94767.31;;;1.74;87.82
71107;BME280;58763;47.982;11.516;2024-02-21T06:42:41;94768.91;;;1.75;87.81
71107;BME280;58763;47.982;11.516;2024-02-21T06:45:07;94765.59;;;1.80;87.30
71107;BME280;58763;47.982;11.516;2024-02-21T06:47:33;94774.75;;;1.90;86.88
71107;BME280;58763;47.982;11.516;2024-02-21T06:49:58;94778.84;;;1.93;86.21
71107;BME280;58763;47.982;11.516;2024-02-21T06:52:24;94778.13;;;2.04;85.71
71107;BME280;58763;47.982;11.516;2024-02-21T06:54:50;94776.94;;;2.00;85.74
71107;BME280;58763;47.982;11.516;2024-02-21T06:57:15;94778.56;;;2.01;85.57
71107;BME280;58763;47.982;11.516;2024-02-21T06:59:42;94777.31;;;2.03;85.86
71107;BME280;58763;47.982;11.516;2024-02-21T07:02:08;94776.44;;;2.09;85.64
71107;BME280;58763;47.982;11.516;2024-02-21T07:04:34;94782.91;;;2.20;85.57
71107;BME280;58763;47.982;11.516;2024-02-21T07:06:59;94776.25;;;2.29;85.09
71107;BME280;58763;47.982;11.516;2024-02-21T07:09:25;94772.97;;;2.27;84.44
71107;BME280;58763;47.982;11.516;2024-02-21T07:11:51;94769.13;;;2.23;83.94
71107;BME280;58763;47.982;11.516;2024-02-21T07:14:18;94768.03;;;2.31;83.63
71107;BME280;58763;47.982;11.516;2024-02-21T07:16:44;94765.50;;;2.36;83.73
71107;BME280;58763;47.982;11.516;2024-02-21T07:19:09;94761.38;;;2.40;84.18
71107;BME280;58763;47.982;11.516;2024-02-21T07:21:35;94764.31;;;2.50;83.33
71107;BME280;58763;47.982;11.516;2024-02-21T07:24:04;94774.94;;;2.56;83.06
71107;BME280;58763;47.982;11.516;2024-02-21T07:26:31;94772.06;;;2.58;84.26
71107;BME280;58763;47.982;11.516;2024-02-21T07:28:57;94772.78;;;2.65;84.09
71107;BME280;58763;47.982;11.516;2024-02-21T07:31:22;94772.72;;;2.71;83.96
71107;BME280;58763;47.982;11.516;2024-02-21T07:33:48;94774.28;;;2.79;83.50
71107;BME280;58763;47.982;11.516;2024-02-21T07:36:15;94774.28;;;2.79;82.31
71107;BME280;58763;47.982;11.516;2024-02-21T07:38:41;94772.44;;;2.79;82.33
71107;BME280;58763;47.982;11.516;2024-02-21T07:41:07;94768.69;;;2.80;83.07
71107;BME280;58763;47.982;11.516;2024-02-21T07:43:33;94765.34;;;2.85;82.61
71107;BME280;58763;47.982;11.516;2024-02-21T07:45:58;94754.22;;;2.88;82.71
71107;BME280;58763;47.982;11.516;2024-02-21T07:48:24;94744.81;;;2.86;81.68
71107;BME280;58763;47.982;11.516;2024-02-21T07:50:51;94738.22;;;2.88;81.64
71107;BME280;58763;47.982;11.516;2024-02-21T07:53:16;94740.13;;;2.99;81.51
71107;BME280;58763;47.982;11.516;2024-02-21T07:55:42;94745.59;;;3.04;80.48
71107;BME280;58763;47.982;11.516;2024-02-21T07:58:07;94725.41;;;3.08;79.40
71107;BME280;58763;47.982;11.516;2024-02-21T08:00:33;94709.84;;;3.05;79.26
71107;BME280;58763;47.982;11.516;2024-02-21T08:02:59;94701.00;;;3.05;79.21
71107;BME280;58763;47.982;11.516;2024-02-21T08:05:24;94705.22;;;3.12;79.78
71107;BME280;58763;47.982;11.516;2024-02-21T08:07:50;94692.59;;;3.19;79.03
71107;BME280;58763;47.982;11.516;2024-02-21T08:10:16;94690.13;;;3.18;79.46
71107;BME280;58763;47.982;11.516;2024-02-21T08:12:41;94678.53;;;3.24;79.24
71107;BME280;58763;47.982;11.516;2024-02-21T08:15:08;94675.03;;;3.23;79.46
71107;BME280;58763;47.982;11.516;2024-02-21T08:17:36;94670.16;;;3.20;79.41
71107;BME280;58763;47.982;11.516;2024-02-21T08:20:03;94678.00;;;3.33;79.56
71107;BME280;58763;47.982;11.516;2024-02-21T08:22:30;94678.22;;;3.43;79.64
71107;BME280;58763;47.982;11.516;2024-02-21T08:24:56;94674.28;;;3.58;80.30
71107;BME280;58763;47.982;11.516;2024-02-21T08:27:21;94671.88;;;3.68;79.68
71107;BME280;58763;47.982;11.516;2024-02-21T08:29:47;94672.22;;;3.83;79.73
71107;BME280;58763;47.982;11.516;2024-02-21T08:32:13;94667.47;;;3.96;79.60
71107;BME280;58763;47.982;11.516;2024-02-21T08:34:38;94662.34;;;4.06;79.83
71107;BME280;58763;47.982;11.516;2024-02-21T08:37:04;94662.31;;;4.18;78.65
71107;BME280;58763;47.982;11.516;2024-02-21T08:39:30;94656.25;;;4.34;79.78
71107;BME280;58763;47.982;11.516;2024-02-21T08:41:56;94653.06;;;4.60;79.08
71107;BME280;58763;47.982;11.516;2024-02-21T08:44:24;94650.69;;;4.75;77.89
71107;BME280;58763;47.982;11.516;2024-02-21T08:46:51;94664.56;;;5.01;77.94
71107;BME280;58763;47.982;11.516;2024-02-21T08:49:16;94654.16;;;5.16;72.57
71107;BME280;58763;47.982;11.516;2024-02-21T08:51:42;94657.00;;;5.26;71.81
71107;BME280;58763;47.982;11.516;2024-02-21T08:54:08;94657.50;;;5.39;70.78
71107;BME280;58763;47.982;11.516;2024-02-21T08:56:34;94659.81;;;5.64;71.62
71107;BME280;58763;47.982;11.516;2024-02-21T08:59:01;94664.38;;;5.80;68.95
71107;BME280;58763;47.982;11.516;2024-02-21T09:01:27;94659.00;;;6.13;67.45
71107;BME280;58763;47.982;11.516;2024-02-21T09:03:53;94659.09;;;6.40;67.21
71107;BME280;58763;47.982;11.516;2024-02-21T09:06:19;94663.25;;;6.69;65.03
71107;BME280;58763;47.982;11.516;2024-02-21T09:08:46;94661.69;;;6.95;65.21
71107;BME280;58763;47.982;11.516;2024-02-21T09:11:11;94664.25;;;7.07;63.27
71107;BME280;58763;47.982;11.516;2024-02-21T09:13:37;94659.03;;;7.22;61.97
71107;BME280;58763;47.982;11.516;2024-02-21T09:16:03;94655.78;;;7.46;61.63
71107;BME280;58763;47.982;11.516;2024-02-21T09:18:29;94649.38;;;7.79;61.43
71107;BME280;58763;47.982;11.516;2024-02-21T09:20:55;94654.44;;;8.12;60.77
71107;BME280;58763;47.982;11.516;2024-02-21T09:23:24;94652.47;;;8.03;58.43
71107;BME280;58763;47.982;11.516;2024-02-21T09:25:49;94650.72;;;8.18;57.94
71107;BME280;58763;47.982;11.516;2024-02-21T09:28:15;94650.25;;;8.26;58.50
71107;BME280;58763;47.982;11.516;2024-02-21T09:30:40;94652.78;;;8.43;56.20
71107;BME280;58763;47.982;11.516;2024-02-21T09:33:06;94653.56;;;8.39;55.12
71107;BME280;58763;47.982;11.516;2024-02-21T09:35:32;94652.81;;;8.48;57.13
71107;BME280;58763;47.982;11.516;2024-02-21T09:37:59;94661.25;;;8.62;54.76
71107;BME280;58763;47.982;11.516;2024-02-21T09:40:25;94665.63;;;8.68;54.88
71107;BME280;58763;47.982;11.516;2024-02-21T09:43:01;94653.84;;;8.84;55.63
71107;BME280;58763;47.982;11.516;2024-02-21T09:45:29;94655.50;;;8.95;55.53
71107;BME280;58763;47.982;11.516;2024-02-21T09:48:26;94661.78;;;9.21;55.47
71107;BME280;58763;47.982;11.516;2024-02-21T09:50:54;94658.31;;;9.30;52.97
71107;BME280;58763;47.982;11.516;2024-02-21T09:53:24;94656.44;;;9.41;51.16
71107;BME280;58763;47.982;11.516;2024-02-21T09:55:50;94648.88;;;9.48;52.79
71107;BME280;58763;47.982;11.516;2024-02-21T09:58:16;94647.03;;;9.73;52.25
71107;BME280;58763;47.982;11.516;2024-02-21T10:00:41;94648.97;;;9.98;53.35
71107;BME280;58763;47.982;11.516;2024-02-21T10:03:07;94643.00;;;10.06;52.96
71107;BME280;58763;47.982;11.516;2024-02-21T10:05:34;94651.09;;;10.06;52.01
71107;BME280;58763;47.982;11.516;2024-02-21T10:08:01;94644.09;;;9.95;50.52
71107;BME280;58763;47.982;11.516;2024-02-21T10:10:27;94640.03;;;10.03;52.57
71107;BME280;58763;47.982;11.516;2024-02-21T10:12:55;94638.44;;;10.12;50.94
71107;BME280;58763;47.982;11.516;2024-02-21T10:15:22;94637.63;;;10.16;49.80
71107;BME280;58763;47.982;11.516;2024-02-21T10:17:49;94630.59;;;10.15;51.17
71107;BME280;58763;47.982;11.516;2024-02-21T10:20:15;94637.34;;;10.18;49.60
71107;BME280;58763;47.982;11.516;2024-02-21T10:22:41;94638.69;;;10.15;50.49
71107;BME280;58763;47.982;11.516;2024-02-21T10:27:34;94635.72;;;10.37;45.79
71107;BME280;58763;47.982;11.516;2024-02-21T10:29:59;94634.88;;;10.52;47.78
71107;BME280;58763;47.982;11.516;2024-02-21T10:32:25;94624.34;;;10.50;47.34
71107;BME280;58763;47.982;11.516;2024-02-21T10:35:03;94624.88;;;10.52;45.68
71107;BME280;58763;47.982;11.516;2024-02-21T10:37:30;94617.00;;;10.56;46.33
71107;BME280;58763;47.982;11.516;2024-02-21T10:39:57;94614.25;;;10.76;47.26
71107;BME280;58763;47.982;11.516;2024-02-21T10:42:29;94608.81;;;10.81;45.48
71107;BME280;58763;47.982;11.516;2024-02-21T10:45:01;94599.31;;;10.93;46.05
71107;BME280;58763;47.982;11.516;2024-02-21T10:47:32;94593.06;;;10.98;44.56
71107;BME280;58763;47.982;11.516;2024-02-21T10:50:03;94599.00;;;11.00;44.18
71107;BME280;58763;47.982;11.516;2024-02-21T10:52:41;94582.75;;;11.00;44.92
71107;BME280;58763;47.982;11.516;2024-02-21T10:55:41;94575.91;;;11.18;43.73
71107;BME280;58763;47.982;11.516;2024-02-21T10:58:10;94572.41;;;11.17;41.61
71107;BME280;58763;47.982;11.516;2024-02-21T11:00:36;94567.22;;;11.21;41.69
71107;BME280;58763;47.982;11.516;2024-02-21T11:03:03;94562.28;;;11.33;41.61
71107;BME280;58763;47.982;11.516;2024-02-21T11:05:34;94551.38;;;11.43;41.40
71107;BME280;58763;47.982;11.516;2024-02-21T11:08:03;94548.88;;;11.51;41.16
71107;BME280;58763;47.982;11.516;2024-02-21T11:10:31;94541.53;;;11.57;41.74
71107;BME280;58763;47.982;11.516;2024-02-21T11:13:09;94539.91;;;11.56;43.59
71107;BME280;58763;47.982;11.516;2024-02-21T11:15:35;94532.03;;;11.59;40.37
71107;BME280;58763;47.982;11.516;2024-02-21T11:18:02;94527.47;;;11.89;40.71
71107;BME280;58763;47.982;11.516;2024-02-21T11:20:33;94524.91;;;11.73;39.41
71107;BME280;58763;47.982;11.516;2024-02-21T11:22:59;94505.28;;;11.87;39.80
71107;BME280;58763;47.982;11.516;2024-02-21T11:25:33;94504.97;;;11.88;43.32
71107;BME280;58763;47.982;11.516;2024-02-21T11:28:03;94496.06;;;11.88;41.29
71107;BME280;58763;47.982;11.516;2024-02-21T11:30:30;94501.09;;;11.99;42.07
71107;BME280;58763;47.982;11.516;2024-02-21T11:33:01;94496.53;;;11.95;40.36
71107;BME280;58763;47.982;11.516;2024-02-21T11:35:32;94484.19;;;12.07;45.43
71107;BME280;58763;47.982;11.516;2024-02-21T11:38:11;94477.41;;;12.10;40.01
71107;BME280;58763;47.982;11.516;2024-02-21T11:40:46;94477.09;;;12.11;40.64
71107;BME280;58763;47.982;11.516;2024-02-21T11:43:12;94477.19;;;12.06;39.76
71107;BME280;58763;47.982;11.516;2024-02-21T11:45:37;94461.66;;;12.12;40.79
71107;BME280;58763;47.982;11.516;2024-02-21T11:48:08;94462.75;;;12.11;42.12
71107;BME280;58763;47.982;11.516;2024-02-21T11:50:36;94453.56;;;12.07;41.36
71107;BME280;58763;47.982;11.516;2024-02-21T11:53:02;94460.03;;;12.11;40.60
71107;BME280;58763;47.982;11.516;2024-02-21T11:55:29;94456.81;;;12.09;40.41
71107;BME280;58763;47.982;11.516;2024-02-21T11:57:54;94449.16;;;12.16;43.38
71107;BME280;58763;47.982;11.516;2024-02-21T12:00:20;94441.81;;;12.16;41.58
71107;BME280;58763;47.982;11.516;2024-02-21T12:02:46;94435.31;;;12.17;42.02
71107;BME280;58763;47.982;11.516;2024-02-21T12:05:13;94424.91;;;12.24;41.51
71107;BME280;58763;47.982;11.516;2024-02-21T12:07:39;94424.63;;;12.26;39.06
71107;BME280;58763;47.982;11.516;2024-02-21T12:10:09;94425.06;;;12.33;39.39
71107;BME280;58763;47.982;11.516;2024-02-21T12:12:36;94406.69;;;12.48;40.04
71107;BME280;58763;47.982;11.516;2024-02-21T12:15:07;94408.00;;;12.51;40.18
71107;BME280;58763;47.982;11.516;2024-02-21T12:17:34;94405.75;;;12.58;38.45
71107;BME280;58763;47.982;11.516;2024-02-21T12:20:03;94407.38;;;12.59;38.12
71107;BME280;58763;47.982;11.516;2024-02-21T12:22:39;94400.44;;;12.72;39.29
71107;BME280;58763;47.982;11.516;2024-02-21T12:25:25;94403.78;;;12.82;39.81
71107;BME280;58763;47.982;11.516;2024-02-21T12:27:54;94404.59;;;12.83;39.29
71107;BME280;58763;47.982;11.516;2024-02-21T12:30:19;94394.00;;;12.81;39.26
71107;BME280;58763;47.982;11.516;2024-02-21T12:32:48;94385.81;;;12.86;39.68
71107;BME280;58763;47.982;11.516;2024-02-21T12:35:14;94379.22;;;12.92;36.80
71107;BME280;58763;47.982;11.516;2024-02-21T12:37:39;94378.09;;;12.93;37.32
71107;BME280;58763;47.982;11.516;2024-02-21T12:40:06;94361.88;;;12.88;37.95
71107;BME280;58763;47.982;11.516;2024-02-21T12:42:33;94364.53;;;12.93;39.23
71107;BME280;58763;47.982;11.516;2024-02-21T12:44:59;94356.31;;;12.98;37.20
71107;BME280;58763;47.982;11.516;2024-02-21T12:47:25;94349.88;;;13.13;36.94
71107;BME280;58763;47.982;11.516;2024-02-21T12:49:54;94345.03;;;13.10;37.73
71107;BME280;58763;47.982;11.516;2024-02-21T12:52:20;94329.97;;;13.18;37.18
71107;BME280;58763;47.982;11.516;2024-02-21T12:54:45;94338.94;;;13.32;37.61
71107;BME280;58763;47.982;11.516;2024-02-21T12:57:11;94331.13;;;13.30;38.56
71107;BME280;58763;47.982;11.516;2024-02-21T12:59:36;94332.72;;;13.31;36.59
71107;BME280;58763;47.982;11.516;2024-02-21T13:02:02;94316.72;;;13.30;36.36